createdAt,value
2019-04-11T00:01:51.603Z,22.62
2019-04-11T00:04:44.726Z,26.12
2019-04-11T00:07:40.465Z,24.82
2019-04-11T00:10:37.402Z,25.92
2019-04-11T00:13:35.217Z,25.48
2019-04-11T00:16:29.163Z,28.70
2019-04-11T00:19:24.288Z,26.65
2019-04-11T00:22:19.476Z,21.60
2019-04-11T00:25:15.583Z,25.20
2019-04-11T00:28:10.935Z,28.62
2019-04-11T00:31:06.348Z,26.55
2019-04-11T00:34:02.504Z,28.25
2019-04-11T00:36:58.820Z,25.30
2019-04-11T00:39:54.143Z,30.90
2019-04-11T00:42:49.145Z,31.97
2019-04-11T00:45:44.184Z,26.97
2019-04-11T00:48:39.450Z,27.37
2019-04-11T00:51:34.627Z,30.40
2019-04-11T00:54:30.973Z,28.85
2019-04-11T00:57:26.114Z,27.80
2019-04-11T01:00:22.857Z,28.10
2019-04-11T01:03:17.993Z,31.37
2019-04-11T01:06:14.090Z,28.73
2019-04-11T01:09:11.007Z,26.35
2019-04-11T01:12:05.942Z,27.00
2019-04-11T01:15:01.173Z,27.50
2019-04-11T01:17:57.931Z,29.57
2019-04-11T01:20:53.677Z,31.33
2019-04-11T01:23:48.545Z,28.52
2019-04-11T01:26:45.528Z,28.90
2019-04-11T01:29:41.807Z,31.23
2019-04-11T01:32:38.114Z,31.37
2019-04-11T01:35:33.234Z,30.00
2019-04-11T01:38:30.495Z,30.92
2019-04-11T01:41:26.420Z,31.52
2019-04-11T01:44:22.719Z,32.58
2019-04-11T01:47:24.954Z,29.18
2019-04-11T01:50:23.594Z,33.15
2019-04-11T01:53:19.227Z,27.82
2019-04-11T01:56:14.860Z,30.72
2019-04-11T01:59:11.035Z,30.92
2019-04-11T02:02:17.576Z,30.62
2019-04-11T02:05:25.460Z,26.52
2019-04-11T02:08:20.786Z,34.08
2019-04-11T02:11:16.949Z,28.10
2019-04-11T02:14:16.225Z,28.30
2019-04-11T02:17:08.750Z,30.90
2019-04-11T02:20:05.316Z,36.85
2019-04-11T02:23:07.636Z,34.78
2019-04-11T02:26:23.476Z,31.95
2019-04-11T02:29:19.380Z,30.27
2019-04-11T02:32:15.853Z,27.55
2019-04-11T02:35:12.955Z,34.20
2019-04-11T02:38:11.809Z,35.00
2019-04-11T02:41:08.599Z,31.62
2019-04-11T02:44:05.734Z,29.48
2019-04-11T02:47:08.342Z,34.33
2019-04-11T02:49:57.442Z,31.77
2019-04-11T02:52:54.556Z,32.83
2019-04-11T02:55:52.075Z,34.18
2019-04-11T02:58:48.260Z,32.08
2019-04-11T03:01:44.018Z,33.08
2019-04-11T03:04:41.789Z,35.90
2019-04-11T03:07:38.049Z,31.93
2019-04-11T03:10:36.076Z,34.25
2019-04-11T03:13:30.838Z,30.45
2019-04-11T03:16:39.357Z,36.00
2019-04-11T03:19:37.529Z,33.35
2019-04-11T03:22:22.629Z,36.10
2019-04-11T03:25:18.473Z,30.72
2019-04-11T03:28:18.359Z,32.53
2019-04-11T03:31:42.129Z,27.55
2019-04-11T03:37:25.897Z,30.48
2019-04-11T03:40:23.403Z,37.93
2019-04-11T03:43:08.919Z,33.33
2019-04-11T03:46:16.105Z,38.48
2019-04-11T03:49:02.635Z,41.08
2019-04-11T03:51:50.696Z,38.23
2019-04-11T03:54:47.389Z,34.27
2019-04-11T03:57:42.513Z,36.65
2019-04-11T04:00:41.449Z,37.30
2019-04-11T04:03:34.272Z,36.08
2019-04-11T04:06:31.016Z,33.42
2019-04-11T04:09:28.649Z,46.18
2019-04-11T04:12:23.535Z,34.27
2019-04-11T04:16:00.168Z,35.85
2019-04-11T04:18:58.505Z,31.33
2019-04-11T04:22:15.763Z,37.35
2019-04-11T04:25:12.418Z,31.60
2019-04-11T04:28:07.915Z,29.00
2019-04-11T04:31:04.575Z,33.45
2019-04-11T04:33:59.618Z,29.35
2019-04-11T04:36:55.684Z,28.02
2019-04-11T04:40:12.254Z,26.15
2019-04-11T04:42:52.049Z,28.62
2019-04-11T04:46:04.877Z,32.50
2019-04-11T04:48:40.997Z,24.65
2019-04-11T04:51:39.027Z,26.00
2019-04-11T04:54:36.141Z,26.30
2019-04-11T04:57:31.765Z,26.00
2019-04-11T05:00:32.158Z,32.25
2019-04-11T05:03:29.649Z,31.75
2019-04-11T05:06:26.083Z,32.28
2019-04-11T05:09:21.441Z,32.53
2019-04-11T05:12:22.616Z,44.93
2019-04-11T05:15:20.892Z,39.13
2019-04-11T05:18:18.066Z,36.75
2019-04-11T05:21:17.173Z,35.60
2019-04-11T05:24:15.002Z,37.23
2019-04-11T05:27:14.639Z,36.83
2019-04-11T05:30:11.173Z,41.18
2019-04-11T05:33:09.493Z,37.67
2019-04-11T05:36:08.458Z,40.38
2019-04-11T05:39:06.540Z,40.20
2019-04-11T05:42:03.057Z,42.08
2019-04-11T05:44:59.536Z,44.23
2019-04-11T05:47:59.385Z,42.05
2019-04-11T05:51:03.067Z,40.40
2019-04-11T05:54:09.209Z,50.03
2019-04-11T05:57:09.010Z,51.08
2019-04-11T06:00:16.190Z,45.52
2019-04-11T06:03:19.975Z,43.68
2019-04-11T06:06:38.526Z,44.03
2019-04-11T06:14:40.089Z,52.20
2019-04-11T06:19:00.493Z,42.45
2019-04-11T06:22:27.128Z,44.65
2019-04-11T06:25:44.546Z,43.23
2019-04-11T06:32:58.360Z,57.65
2019-04-11T06:38:49.372Z,45.35
2019-04-11T06:39:47.987Z,46.60
2019-04-11T06:42:49.722Z,42.88
2019-04-11T06:46:14.449Z,41.70
2019-04-11T06:49:18.821Z,46.60
2019-04-11T06:52:18.882Z,49.85
2019-04-11T06:55:33.156Z,40.65
2019-04-11T06:58:43.809Z,45.43
2019-04-11T07:02:36.916Z,46.58
2019-04-11T07:05:38.620Z,41.00
2019-04-11T07:09:44.979Z,42.10
2019-04-11T07:12:59.315Z,40.20
2019-04-11T07:15:58.150Z,45.23
2019-04-11T07:19:13.463Z,38.53
2019-04-11T07:22:26.994Z,40.33
2019-04-11T07:25:39.522Z,35.33
2019-04-11T07:29:13.161Z,44.13
2019-04-11T07:32:22.294Z,39.75
2019-04-11T07:35:29.352Z,38.80
2019-04-11T07:38:34.382Z,46.55
2019-04-11T07:42:02.853Z,39.98
2019-04-11T07:45:51.772Z,42.10
2019-04-11T07:48:48.087Z,33.98
2019-04-11T07:52:06.695Z,47.75
2019-04-11T07:55:06.748Z,41.68
2019-04-11T07:58:23.786Z,37.60
2019-04-11T08:01:38.227Z,43.80
2019-04-11T08:04:53.225Z,39.15
2019-04-11T08:08:15.257Z,50.12
2019-04-11T08:11:40.104Z,40.08
2019-04-11T08:18:20.862Z,39.20
2019-04-11T08:22:00.877Z,38.45
2019-04-11T08:25:42.521Z,37.17
2019-04-11T08:28:45.505Z,33.95
2019-04-11T08:32:04.638Z,36.45
2019-04-11T08:35:19.766Z,48.33
2019-04-11T08:38:34.269Z,43.52
2019-04-11T08:41:51.645Z,40.12
2019-04-11T08:44:52.214Z,49.93
2019-04-11T08:47:57.263Z,38.78
2019-04-11T08:50:58.876Z,44.48
2019-04-11T08:54:13.594Z,43.65
2019-04-11T08:57:10.115Z,49.30
2019-04-11T09:00:26.423Z,43.80
2019-04-11T09:04:07.972Z,37.88
2019-04-11T09:07:05.283Z,41.08
2019-04-11T09:10:17.956Z,46.65
2019-04-11T09:13:33.586Z,40.55
2019-04-11T09:17:26.175Z,37.05
2019-04-11T09:21:05.581Z,41.95
2019-04-11T09:24:06.121Z,36.35
2019-04-11T09:27:17.724Z,45.45
2019-04-11T09:30:25.053Z,36.90
2019-04-11T09:33:57.568Z,42.27
2019-04-11T09:37:03.631Z,43.25
2019-04-11T09:40:47.900Z,44.60
2019-04-11T09:44:09.202Z,39.78
2019-04-11T09:47:32.633Z,43.87
2019-04-11T09:51:09.441Z,38.33
2019-04-11T09:54:30.888Z,35.80
2019-04-11T09:57:41.811Z,40.92
2019-04-11T10:00:57.943Z,42.73
2019-04-11T10:04:12.886Z,38.53
2019-04-11T10:07:39.864Z,38.90
2019-04-11T10:11:10.124Z,31.62
2019-04-11T10:14:17.783Z,33.70
2019-04-11T10:17:38.060Z,33.80
2019-04-11T10:20:40.507Z,33.63
2019-04-11T10:24:02.965Z,38.70
2019-04-11T10:27:09.735Z,35.58
2019-04-11T10:30:34.535Z,32.17
2019-04-11T10:33:50.180Z,37.30
2019-04-11T10:37:13.726Z,35.60
2019-04-11T10:40:32.223Z,35.68
2019-04-11T10:43:37.275Z,35.13
2019-04-11T10:47:02.596Z,37.33
2019-04-11T10:51:06.617Z,32.23
2019-04-11T10:54:15.497Z,42.25
2019-04-11T11:01:36.445Z,47.45
2019-04-11T11:04:38.780Z,49.35
2019-04-11T11:07:42.507Z,54.65
2019-04-11T11:11:14.757Z,49.80
2019-04-11T11:14:27.022Z,65.22
2019-04-11T11:17:54.617Z,61.35
2019-04-11T11:20:57.148Z,60.03
2019-04-11T11:24:08.676Z,53.80
2019-04-11T11:27:09.479Z,60.23
2019-04-11T11:30:31.459Z,53.13
2019-04-11T11:33:39.147Z,59.88
2019-04-11T11:36:58.614Z,69.58
2019-04-11T11:40:18.877Z,57.05
2019-04-11T11:43:27.656Z,51.95
2019-04-11T11:46:55.282Z,45.95
2019-04-11T11:50:00.162Z,48.83
2019-04-11T11:53:12.672Z,44.05
2019-04-11T11:56:05.804Z,39.38
2019-04-11T11:59:18.148Z,42.73
2019-04-11T12:02:40.967Z,49.98
2019-04-11T12:05:48.578Z,39.80
2019-04-11T12:09:07.010Z,49.58
2019-04-11T12:12:12.037Z,46.65
2019-04-11T12:15:39.323Z,55.95
2019-04-11T12:18:53.129Z,80.20
2019-04-11T12:21:48.936Z,126.82
2019-04-11T12:24:53.691Z,115.90
2019-04-11T12:28:00.977Z,80.83
2019-04-11T12:31:03.720Z,74.03
2019-04-11T12:34:34.847Z,58.13
2019-04-11T12:37:38.808Z,53.60
2019-04-11T12:40:51.271Z,34.78
2019-04-11T13:06:36.712Z,25.72
2019-04-11T13:09:52.782Z,28.30
2019-04-11T13:13:20.584Z,27.37
2019-04-11T13:16:17.666Z,30.52
2019-04-11T13:19:32.513Z,37.17
2019-04-11T13:22:28.495Z,28.65
2019-04-11T13:25:59.519Z,33.63
2019-04-11T13:29:06.694Z,37.28
2019-04-11T13:32:20.926Z,41.63
2019-04-11T13:35:32.459Z,42.73
2019-04-11T13:38:34.378Z,44.85
2019-04-11T13:41:55.632Z,45.80
2019-04-11T13:44:50.520Z,35.70
2019-04-11T13:47:47.053Z,42.33
2019-04-11T13:50:42.554Z,37.23
2019-04-11T13:54:02.690Z,33.40
2019-04-11T13:57:15.596Z,44.85
2019-04-11T14:00:28.614Z,40.03
2019-04-11T14:03:49.726Z,40.98
2019-04-11T14:06:45.916Z,36.30
2019-04-11T14:09:45.941Z,45.17
2019-04-11T14:12:43.800Z,39.83
2019-04-11T14:15:40.689Z,37.35
2019-04-11T14:18:45.569Z,38.00
2019-04-11T14:21:43.245Z,35.33
2019-04-11T14:25:04.910Z,27.50
2019-04-11T14:28:02.019Z,38.13
2019-04-11T14:31:22.241Z,37.58
2019-04-11T14:34:41.820Z,37.88
2019-04-11T14:37:43.697Z,33.58
2019-04-11T14:41:01.606Z,31.40
2019-04-11T14:43:57.943Z,39.23
2019-04-11T14:47:11.325Z,37.17
2019-04-11T14:50:08.785Z,37.03
2019-04-11T14:53:34.063Z,30.20
2019-04-11T14:56:28.914Z,39.35
2019-04-11T14:59:30.065Z,40.67
2019-04-11T15:02:31.069Z,34.75
2019-04-11T15:05:37.171Z,30.20
2019-04-11T15:08:49.374Z,32.30
2019-04-11T15:12:06.792Z,35.05
2019-04-11T15:15:25.998Z,35.15
2019-04-11T15:18:26.523Z,31.82
2019-04-11T15:21:38.539Z,31.93
2019-04-11T15:24:37.459Z,32.53
2019-04-11T15:27:56.399Z,31.52
2019-04-11T15:30:55.036Z,33.60
2019-04-11T15:34:07.353Z,31.02
2019-04-11T15:37:16.659Z,29.02
2019-04-11T15:40:17.203Z,26.82
2019-04-11T15:43:42.217Z,26.42
2019-04-11T15:46:36.776Z,33.02
2019-04-11T15:49:54.576Z,31.25
2019-04-11T15:52:55.834Z,30.95
2019-04-11T15:56:27.913Z,31.07
2019-04-11T15:59:58.963Z,25.72
2019-04-11T16:03:10.207Z,27.95
2019-04-11T16:06:21.681Z,25.30
2019-04-11T16:09:20.023Z,31.75
2019-04-11T16:12:29.310Z,26.62
2019-04-11T16:15:23.965Z,25.75
2019-04-11T16:18:39.394Z,32.20
2019-04-11T16:21:44.699Z,26.60
2019-04-11T16:24:39.097Z,29.57
2019-04-11T16:27:50.555Z,28.60
2019-04-11T16:30:53.457Z,34.48
2019-04-11T16:34:04.294Z,27.22
2019-04-11T16:37:01.797Z,25.77
2019-04-11T16:40:17.531Z,29.95
2019-04-11T16:43:11.921Z,30.43
2019-04-11T16:46:37.015Z,39.40
2019-04-11T16:49:31.587Z,32.48
2019-04-11T16:52:26.779Z,32.40
2019-04-11T16:55:21.578Z,31.37
2019-04-11T16:58:19.481Z,30.30
2019-04-11T17:01:12.904Z,27.25
2019-04-11T17:04:08.739Z,25.08
2019-04-11T17:07:13.660Z,26.80
2019-04-11T17:10:08.625Z,22.48
2019-04-11T17:13:03.180Z,21.87
2019-04-11T17:15:59.859Z,25.02
2019-04-11T17:18:53.910Z,23.05
2019-04-11T17:21:48.965Z,22.80
2019-04-11T17:24:47.798Z,25.52
2019-04-11T17:27:41.065Z,21.52
2019-04-11T17:30:35.577Z,18.20
2019-04-11T17:33:30.148Z,22.95
2019-04-11T17:36:24.667Z,20.15
2019-04-11T17:39:19.647Z,23.75
2019-04-11T17:42:14.627Z,16.87
2019-04-11T17:45:10.439Z,26.25
2019-04-11T17:48:05.449Z,21.80
2019-04-11T17:51:04.648Z,21.17
2019-04-11T17:53:56.604Z,16.37
2019-04-11T17:56:54.557Z,17.32
2019-04-11T17:59:48.711Z,24.02
2019-04-11T18:02:46.250Z,23.35
2019-04-11T18:05:41.429Z,21.45
2019-04-11T18:08:36.469Z,19.90
2019-04-11T18:11:31.791Z,19.48
2019-04-11T18:14:28.898Z,15.72
2019-04-11T18:17:22.571Z,17.85
2019-04-11T18:20:17.076Z,21.10
2019-04-11T18:23:11.983Z,14.70
2019-04-11T18:26:07.897Z,19.70
2019-04-11T18:29:02.872Z,15.88
2019-04-11T18:31:57.626Z,19.17
2019-04-11T18:34:52.191Z,16.97
2019-04-11T18:37:47.230Z,19.67
2019-04-11T18:40:42.158Z,19.87
2019-04-11T18:43:36.656Z,18.85
2019-04-11T18:46:31.340Z,18.98
2019-04-11T18:49:25.497Z,19.52
2019-04-11T18:52:20.240Z,15.28
2019-04-11T18:55:15.929Z,25.05
2019-04-11T18:58:10.466Z,19.02
2019-04-11T19:01:09.070Z,19.98
2019-04-11T19:04:03.664Z,17.92
2019-04-11T19:06:58.149Z,16.07
2019-04-11T19:09:53.096Z,20.80
2019-04-11T19:12:48.523Z,16.50
2019-04-11T19:15:45.493Z,18.05
2019-04-11T19:18:40.036Z,16.70
2019-04-11T19:21:34.648Z,20.90
2019-04-11T19:24:35.324Z,17.80
2019-04-11T19:27:25.135Z,18.20
2019-04-11T19:30:19.903Z,17.40
2019-04-11T19:33:19.089Z,26.82
2019-04-11T19:36:12.902Z,18.77
2019-04-11T19:39:13.464Z,20.12
2019-04-11T19:42:08.781Z,18.90
2019-04-11T19:45:02.886Z,15.70
2019-04-11T19:47:58.755Z,18.65
2019-04-11T19:50:53.503Z,21.05
2019-04-11T19:53:48.183Z,22.42
2019-04-11T19:56:47.689Z,19.15
2019-04-11T19:59:42.731Z,19.82
2019-04-11T20:02:38.631Z,18.48
2019-04-11T20:05:33.973Z,19.52
2019-04-11T20:08:28.686Z,22.00
2019-04-11T20:11:23.371Z,19.73
2019-04-11T20:14:18.371Z,26.00
2019-04-11T20:17:13.116Z,23.60
2019-04-11T20:20:08.146Z,27.73
2019-04-11T20:23:02.991Z,24.35
2019-04-11T20:25:57.638Z,16.87
2019-04-11T20:28:52.378Z,25.12
2019-04-11T20:31:46.518Z,23.42
2019-04-11T20:34:41.090Z,25.52
2019-04-11T20:37:39.342Z,24.45
2019-04-11T20:40:32.733Z,30.40
2019-04-11T20:43:27.904Z,20.55
2019-04-11T20:46:22.065Z,19.48
2019-04-11T20:49:16.861Z,19.35
2019-04-11T20:52:11.386Z,17.55
2019-04-11T20:55:08.891Z,22.32
2019-04-11T20:58:01.881Z,19.87
2019-04-11T21:00:56.764Z,20.15
2019-04-11T21:03:51.834Z,16.87
2019-04-11T21:06:46.495Z,21.07
2019-04-11T21:09:41.035Z,13.75
2019-04-11T21:12:37.262Z,22.35
2019-04-11T21:15:31.305Z,14.07
2019-04-11T21:18:26.331Z,12.75
2019-04-11T21:21:22.850Z,15.53
2019-04-11T21:24:16.434Z,16.73
2019-04-11T21:27:10.957Z,14.83
2019-04-11T21:30:06.155Z,16.77
2019-04-11T21:33:01.117Z,16.67
2019-04-11T21:35:56.822Z,20.92
2019-04-11T21:38:51.457Z,17.37
2019-04-11T21:41:46.447Z,13.40
2019-04-11T21:44:41.365Z,16.48
2019-04-11T21:47:37.396Z,14.65
2019-04-11T21:50:32.107Z,14.40
2019-04-11T21:53:36.094Z,14.90
2019-04-11T21:56:22.132Z,16.12
2019-04-11T21:59:20.095Z,13.43
2019-04-11T22:02:14.312Z,12.30
2019-04-11T22:05:09.347Z,13.00
2019-04-11T22:08:05.012Z,13.78
2019-04-11T22:10:59.849Z,18.98
2019-04-11T22:13:54.783Z,13.38
2019-04-11T22:16:49.596Z,15.13
2019-04-11T22:19:45.712Z,15.35
2019-04-11T22:22:40.634Z,16.23
2019-04-11T22:25:35.380Z,13.48
2019-04-11T22:28:30.456Z,18.00
2019-04-11T22:31:25.699Z,15.80
2019-04-11T22:34:31.855Z,18.92
2019-04-11T22:37:27.763Z,17.12
2019-04-11T22:40:21.824Z,15.58
2019-04-11T22:43:24.103Z,16.25
2019-04-11T22:46:20.294Z,9.73
2019-04-11T22:49:08.875Z,12.70
2019-04-11T22:52:05.764Z,17.87
2019-04-11T22:55:01.357Z,17.20
2019-04-11T22:57:56.909Z,13.25
2019-04-11T23:00:52.338Z,14.73
2019-04-11T23:04:06.615Z,12.85
2019-04-11T23:07:01.866Z,11.90
2019-04-11T23:09:56.697Z,10.98
2019-04-11T23:12:51.797Z,16.45
2019-04-11T23:15:47.183Z,10.40
2019-04-11T23:18:44.247Z,10.28
2019-04-11T23:21:42.142Z,13.03
2019-04-11T23:24:36.312Z,11.90
2019-04-11T23:27:31.945Z,11.55
2019-04-11T23:30:27.531Z,12.98
2019-04-11T23:33:22.678Z,12.88
2019-04-11T23:36:18.774Z,13.50
2019-04-11T23:39:14.398Z,9.75
2019-04-11T23:42:09.889Z,10.65
2019-04-11T23:45:05.260Z,11.03
2019-04-11T23:48:01.173Z,14.93
2019-04-11T23:50:56.642Z,12.85
2019-04-11T23:53:51.466Z,12.95
2019-04-11T23:56:46.969Z,15.70
2019-04-11T23:59:42.243Z,11.35
